Time;durP1;ratioP1;P1;durP2;ratioP2;P2;SDS_P1;SDS_P2;PMS_P1;PMS_P2;Temp;Humidity;BMP_temperature;BMP_pressure;BME280_temperature;BME280_humidity;BME280_pressure;Samples;Min_cycle;Max_cycle;Signal;HPM_P1;HPM_P2
2023/04/20 00:00:10;;;;;;;5.73;3.13;;;4.80;67.30;;;8.12;44.65;97596.50;5060144;28;20060;-48
2023/04/20 00:02:40;;;;;;;7.40;3.53;;;4.70;68.30;;;8.08;45.01;97588.03;5059212;28;20053;-44
2023/04/20 00:05:11;;;;;;;6.87;3.70;;;4.70;68.80;;;8.03;45.00;97592.94;5059115;28;20041;-44
2023/04/20 00:07:40;;;;;;;4.00;3.20;;;4.60;68.60;;;8.01;45.00;97586.13;5061844;28;20047;-46
2023/04/20 00:10:08;;;;;;;7.23;3.73;;;4.60;68.60;;;8.01;44.74;97583.47;5062366;28;20041;-46
2023/04/20 00:12:36;;;;;;;6.93;4.17;;;4.60;68.40;;;7.99;44.58;97580.13;5057986;28;20547;-45
2023/04/20 00:15:04;;;;;;;6.10;3.73;;;4.60;68.10;;;8.00;45.25;97579.13;5057345;28;20041;-44
2023/04/20 00:17:32;;;;;;;5.73;3.33;;;4.60;68.20;;;7.98;44.80;97573.97;5060867;28;20041;-45
2023/04/20 00:19:59;;;;;;;5.50;4.03;;;4.60;67.80;;;7.94;44.92;97569.94;5062293;28;20036;-44
2023/04/20 00:22:28;;;;;;;5.37;3.90;;;4.50;68.20;;;7.92;45.00;97568.44;5060792;28;20040;-45
2023/04/20 00:24:56;;;;;;;5.67;3.57;;;4.50;68.20;;;7.91;45.11;97561.44;5058445;28;20045;-46
2023/04/20 00:27:23;;;;;;;5.80;4.50;;;4.50;68.50;;;7.86;45.20;97560.06;5059237;28;20041;-45
2023/04/20 00:29:51;;;;;;;6.47;4.00;;;4.40;69.90;;;7.83;45.27;97560.38;5062194;28;20493;-46
2023/04/20 00:32:18;;;;;;;5.27;3.53;;;4.40;69.10;;;7.81;45.11;97564.16;5061574;28;20079;-43
2023/04/20 00:34:48;;;;;;;4.67;3.73;;;4.40;69.40;;;7.78;45.18;97553.84;5056914;28;20041;-45
2023/04/20 00:37:16;;;;;;;6.37;3.80;;;4.40;69.80;;;7.77;45.12;97549.50;5060449;28;20044;-48
2023/04/20 00:39:44;;;;;;;5.47;3.47;;;4.40;69.40;;;7.75;45.54;97544.34;5062523;28;20517;-42
2023/04/20 00:42:11;;;;;;;6.60;3.90;;;4.40;69.10;;;7.75;45.53;97549.66;5062433;28;20037;-46
2023/04/20 00:44:39;;;;;;;6.33;4.63;;;4.40;69.50;;;7.71;45.37;97536.84;5062809;28;20414;-44
2023/04/20 00:47:06;;;;;;;4.90;4.00;;;4.30;69.60;;;7.67;45.56;97539.78;5065272;28;20049;-47
2023/04/20 00:49:34;;;;;;;5.47;3.93;;;4.30;69.80;;;7.65;45.96;97533.78;5063489;28;20044;-43
2023/04/20 00:52:02;;;;;;;5.83;3.93;;;4.20;70.00;;;7.62;45.97;97535.94;5061009;28;20063;-45
2023/04/20 00:54:31;;;;;;;5.00;4.03;;;4.20;70.40;;;7.60;45.76;97524.63;5062495;28;20040;-45
2023/04/20 00:56:59;;;;;;;5.07;3.80;;;4.20;70.40;;;7.59;45.71;97513.19;5061454;28;20041;-47
2023/04/20 00:59:26;;;;;;;7.57;5.03;;;4.30;70.20;;;7.62;45.93;97514.72;5064275;28;20041;-44
2023/04/20 01:01:54;;;;;;;4.67;3.33;;;4.20;69.60;;;7.57;45.87;97517.81;5060350;28;20075;-45
2023/04/20 01:04:22;;;;;;;6.27;4.27;;;4.20;70.20;;;7.53;45.67;97513.78;5060074;28;20426;-44
2023/04/20 01:06:50;;;;;;;4.47;3.93;;;4.20;70.20;;;7.56;45.44;97505.56;5063878;28;20043;-46
2023/04/20 01:09:17;;;;;;;6.50;4.40;;;4.20;69.80;;;7.51;45.57;97496.38;5063794;28;20051;-45
2023/04/20 01:11:45;;;;;;;5.47;3.93;;;4.10;70.00;;;7.48;45.86;97503.63;5065132;28;20040;-49
2023/04/20 01:14:16;;;;;;;7.50;4.40;;;4.00;70.20;;;7.46;45.89;97492.34;5065124;28;20044;-45
2023/04/20 01:16:43;;;;;;;5.73;3.90;;;4.10;70.60;;;7.41;45.75;97491.94;5060325;28;20044;-46
2023/04/20 01:19:12;;;;;;;8.60;4.03;;;4.00;71.40;;;7.38;46.52;97483.44;5061738;28;20037;-46
2023/04/20 01:21:40;;;;;;;5.53;3.87;;;4.00;71.50;;;7.35;46.11;97489.88;5062775;28;20053;-46
2023/04/20 01:24:07;;;;;;;8.17;4.10;;;4.00;71.50;;;7.38;46.26;97486.09;5063554;28;20056;-46
2023/04/20 01:26:35;;;;;;;7.57;4.30;;;4.00;71.00;;;7.41;46.10;97472.56;5061040;28;20052;-44
2023/04/20 01:29:02;;;;;;;7.70;4.70;;;4.00;71.10;;;7.42;45.85;97467.09;5061371;28;20040;-47
2023/04/20 01:31:30;;;;;;;5.80;4.20;;;4.10;70.60;;;7.42;46.29;97469.75;5061184;28;20049;-44
2023/04/20 01:33:58;;;;;;;6.00;4.50;;;4.10;70.80;;;7.39;45.96;97464.75;5064383;28;20044;-45
2023/04/20 01:36:25;;;;;;;5.47;4.30;;;4.00;70.80;;;7.35;45.81;97462.53;5062850;28;20052;-46
2023/04/20 01:38:53;;;;;;;6.63;4.27;;;4.00;71.20;;;7.37;45.92;97458.78;5059892;28;20052;-46
2023/04/20 01:41:21;;;;;;;7.57;3.83;;;4.00;70.90;;;7.37;45.98;97450.84;5059581;28;20048;-45
2023/04/20 01:43:48;;;;;;;6.27;4.90;;;4.00;70.70;;;7.37;46.00;97450.84;5051542;28;20060;-44
2023/04/20 01:46:16;;;;;;;6.90;4.07;;;4.00;70.40;;;7.35;45.56;97441.34;5059482;28;20060;-46
2023/04/20 01:48:44;;;;;;;5.43;3.70;;;4.00;70.30;;;7.32;46.34;97441.66;5061774;28;20044;-47
2023/04/20 01:51:11;;;;;;;6.37;5.13;;;4.00;71.30;;;7.25;46.74;97442.25;5046476;28;20051;-46
2023/04/20 01:53:39;;;;;;;7.27;4.00;;;3.90;71.80;;;7.23;46.20;97438.03;5060436;28;20049;-46
2023/04/20 01:56:07;;;;;;;6.20;3.47;;;3.90;71.90;;;7.25;46.49;97428.13;5061202;28;20037;-45
2023/04/20 01:58:34;;;;;;;6.80;4.27;;;3.90;72.10;;;7.27;46.00;97432.34;5061333;28;20064;-46
2023/04/20 02:01:02;;;;;;;7.20;4.20;;;3.90;72.10;;;7.27;46.83;97432.34;5062218;28;20048;-46
2023/04/20 02:03:30;;;;;;;7.23;3.77;;;3.90;72.20;;;7.26;46.52;97428.00;5061805;28;20429;-45
2023/04/20 02:05:57;;;;;;;5.73;4.03;;;3.90;71.50;;;7.28;46.78;97435.81;5059141;28;20049;-44
2023/04/20 02:08:29;;;;;;;4.53;4.10;;;4.00;71.60;;;7.27;46.19;97429.69;5059474;28;20422;-44
2023/04/20 02:10:57;;;;;;;4.50;3.90;;;4.00;71.10;;;7.23;46.47;97424.81;5063978;28;20544;-44
2023/04/20 02:13:24;;;;;;;7.57;4.07;;;3.90;71.40;;;7.24;46.32;97421.19;5046355;28;20043;-46
2023/04/20 02:15:52;;;;;;;5.67;4.13;;;3.90;71.40;;;7.25;46.27;97421.06;5039130;28;20053;-46
2023/04/20 02:18:23;;;;;;;7.83;4.43;;;4.00;71.50;;;7.20;46.43;97417.16;5056560;28;20425;-44
2023/04/20 02:20:52;;;;;;;6.07;4.30;;;3.90;72.00;;;7.15;46.78;97417.59;5051185;28;20044;-44
2023/04/20 02:23:19;;;;;;;7.17;4.10;;;3.80;72.20;;;7.12;47.09;97412.59;5058576;28;20045;-46
2023/04/20 02:25:47;;;;;;;6.40;4.70;;;3.80;72.20;;;7.11;46.41;97408.28;5053226;28;20047;-46
2023/04/20 02:28:15;;;;;;;10.20;4.50;;;3.80;72.20;;;7.11;46.57;97410.91;5062115;28;20048;-44
2023/04/20 02:30:43;;;;;;;5.97;4.60;;;3.70;72.30;;;7.12;46.92;97403.84;5059798;28;20413;-43
2023/04/20 02:33:11;;;;;;;6.77;4.03;;;3.90;72.10;;;7.15;46.82;97403.53;5058300;28;20041;-44
2023/04/20 02:35:39;;;;;;;5.77;4.20;;;3.90;71.70;;;7.14;46.26;97400.06;5059098;28;20423;-44
2023/04/20 02:38:06;;;;;;;5.53;3.57;;;3.80;71.70;;;7.13;46.31;97398.38;5063353;28;20043;-46
2023/04/20 02:40:34;;;;;;;5.13;3.90;;;3.80;71.80;;;7.12;46.67;97395.88;5060605;28;20501;-44
2023/04/20 02:43:02;;;;;;;6.40;4.17;;;3.80;72.10;;;7.10;46.91;97388.09;5060042;28;20060;-46
2023/04/20 02:45:31;;;;;;;5.03;4.30;;;3.80;72.20;;;7.08;46.85;97390.88;5058602;28;20510;-46
2023/04/20 02:47:59;;;;;;;6.83;4.80;;;3.80;72.00;;;7.08;46.86;97390.88;5063437;28;20411;-44
2023/04/20 02:50:30;;;;;;;5.83;4.37;;;3.80;71.50;;;7.07;46.61;97388.38;5062082;28;20052;-44
2023/04/20 02:53:04;;;;;;;7.60;4.47;;;3.70;71.70;;;7.04;46.50;97384.22;5038737;28;20426;-45
2023/04/20 02:55:34;;;;;;;5.67;4.27;;;3.70;71.90;;;7.03;47.17;97379.06;5056549;28;20045;-44
2023/04/20 02:58:10;;;;;;;6.03;4.10;;;3.80;72.00;;;7.03;46.99;97379.88;5061919;28;20048;-46
2023/04/20 03:01:01;;;;;;;7.13;4.70;;;3.70;71.60;;;7.05;46.57;97377.91;5051474;28;20464;-45
2023/04/20 03:03:30;;;;;;;5.80;4.57;;;3.80;72.00;;;7.04;46.87;97378.09;5039301;28;20503;-45
2023/04/20 03:05:58;;;;;;;6.90;5.20;;;3.80;71.50;;;6.98;46.58;97374.22;5061605;28;20084;-44
2023/04/20 03:08:26;;;;;;;9.93;5.20;;;3.70;71.60;;;6.95;46.91;97369.19;5061837;28;20509;-46
2023/04/20 03:10:56;;;;;;;8.03;4.90;;;3.60;72.50;;;6.93;47.09;97371.16;5050082;28;20518;-47
2023/04/20 03:13:24;;;;;;;6.37;5.00;;;3.60;72.60;;;6.90;46.84;97364.34;5038266;28;20053;-44
2023/04/20 03:15:59;;;;;;;9.23;5.43;;;3.60;73.80;;;6.87;46.97;97363.78;5051810;28;20740;-46
2023/04/20 03:18:34;;;;;;;7.77;4.40;;;3.60;73.10;;;6.83;47.43;97368.53;5056111;28;20049;-45
2023/04/20 03:21:02;;;;;;;9.30;5.67;;;3.50;73.20;;;6.83;47.68;97365.06;5061255;28;20044;-49
2023/04/20 03:23:31;;;;;;;7.67;5.20;;;3.60;73.30;;;6.82;47.21;97358.91;5060851;28;20405;-46
2023/04/20 03:26:00;;;;;;;9.77;5.43;;;3.60;73.10;;;6.77;47.03;97363.00;5037746;28;20098;-43
2023/04/20 03:28:42;;;;;;;6.43;4.90;;;3.40;73.00;;;6.71;47.48;97356.47;5056421;28;20045;-46
2023/04/20 03:31:13;;;;;;;6.33;4.90;;;3.30;73.90;;;6.68;47.00;97362.03;5062941;28;20111;-45
2023/04/20 03:33:41;;;;;;;8.00;4.63;;;3.30;74.40;;;6.68;47.24;97360.22;5060870;28;20497;-46
2023/04/20 03:36:10;;;;;;;6.30;4.87;;;3.30;74.40;;;6.67;47.47;97355.09;5057307;28;20049;-45
2023/04/20 03:38:37;;;;;;;8.17;4.33;;;3.20;73.80;;;6.63;47.21;97359.84;5058880;28;20514;-46
2023/04/20 03:41:07;;;;;;;8.27;4.73;;;3.20;74.40;;;6.55;47.75;97366.81;5060851;28;20045;-48
2023/04/20 03:43:34;;;;;;;6.13;5.00;;;3.10;75.50;;;6.54;47.56;97373.91;5059958;28;20049;-46
2023/04/20 03:46:02;;;;;;;7.13;5.47;;;3.20;76.50;;;6.56;48.24;97369.31;5057519;28;20518;-47
2023/04/20 03:48:31;;;;;;;8.27;4.83;;;3.10;75.40;;;6.54;48.48;97376.56;5057180;28;20533;-44
2023/04/20 03:50:59;;;;;;;9.20;6.70;;;3.10;75.60;;;6.56;47.56;97368.47;5061140;28;20045;-46
2023/04/20 03:53:27;;;;;;;10.77;5.10;;;3.10;75.80;;;6.55;47.85;97372.91;5060480;28;20056;-48
2023/04/20 03:55:55;;;;;;;8.83;5.63;;;3.20;75.50;;;6.57;47.43;97368.34;5057510;28;20549;-47
2023/04/20 03:58:23;;;;;;;9.10;7.37;;;3.20;75.10;;;6.56;47.46;97371.13;5056292;28;20041;-45
2023/04/20 04:01:11;;;;;;;7.93;5.80;;;3.20;75.00;;;6.55;47.75;97366.81;5057754;28;20055;-44
2023/04/20 04:03:43;;;;;;;11.07;7.90;;;3.20;75.60;;;6.55;47.88;97362.34;5043654;28;20120;-44
2023/04/20 04:06:12;;;;;;;9.30;7.07;;;3.30;75.50;;;6.56;47.49;97369.31;5060730;28;20044;-45
2023/04/20 04:08:40;;;;;;;10.10;6.63;;;3.30;75.00;;;6.55;47.49;97358.88;5060956;28;20060;-44
2023/04/20 04:11:08;;;;;;;10.33;6.47;;;3.20;74.90;;;6.54;47.76;97362.50;5058800;28;20037;-45
2023/04/20 04:13:36;;;;;;;9.13;6.10;;;3.30;75.60;;;6.49;48.30;97357.63;5063101;28;20049;-46
2023/04/20 04:16:06;;;;;;;10.20;6.67;;;3.10;75.20;;;6.47;47.45;97363.06;5065296;28;20056;-45
2023/04/20 04:18:34;;;;;;;9.70;7.17;;;3.00;75.70;;;6.45;47.87;97367.66;5065458;28;20049;-45
2023/04/20 04:21:09;;;;;;;12.13;6.53;;;3.00;76.10;;;6.44;48.23;97366.00;5061370;28;20425;-44
2023/04/20 04:23:38;;;;;;;8.83;6.03;;;3.10;75.80;;;6.44;47.90;97359.88;5062067;28;20056;-45
2023/04/20 04:26:12;;;;;;;9.27;6.63;;;3.00;75.50;;;6.44;47.62;97365.16;5064417;28;20036;-46
2023/04/20 04:28:44;;;;;;;10.23;5.67;;;3.00;75.60;;;6.40;48.31;97367.25;5063354;28;20059;-47
2023/04/20 04:31:20;;;;;;;7.87;5.43;;;3.00;75.70;;;6.38;47.76;97358.63;5057655;28;20057;-45
2023/04/20 04:33:48;;;;;;;9.67;6.23;;;3.00;76.10;;;6.33;47.99;97363.50;5063324;28;20395;-45
2023/04/20 04:36:25;;;;;;;7.30;5.83;;;2.90;76.00;;;6.33;48.04;97360.84;5064044;28;20044;-46
2023/04/20 04:38:55;;;;;;;9.33;5.67;;;2.90;76.70;;;6.34;48.62;97361.69;5053200;28;20045;-43
2023/04/20 04:41:24;;;;;;;8.17;5.57;;;2.90;76.80;;;6.35;48.44;97358.91;5060355;28;20418;-43
2023/04/20 04:43:53;;;;;;;10.03;6.00;;;3.00;76.10;;;6.34;47.96;97359.91;5063739;28;20047;-43
2023/04/20 04:46:28;;;;;;;10.27;5.97;;;2.90;76.30;;;6.30;48.35;97356.69;5063639;28;20055;-44
2023/04/20 04:48:59;;;;;;;11.97;6.97;;;2.90;77.10;;;6.26;48.60;97351.81;5061145;28;20498;-45
2023/04/20 04:51:27;;;;;;;9.07;6.03;;;2.80;76.90;;;6.27;48.59;97356.97;5062848;28;20045;-48
2023/04/20 04:53:55;;;;;;;6.73;5.70;;;2.90;78.00;;;6.27;48.75;97356.97;5064046;28;20059;-45
2023/04/20 04:56:23;;;;;;;10.20;6.60;;;2.90;77.80;;;6.27;49.01;97349.03;5065166;28;20037;-44
2023/04/20 04:58:50;;;;;;;11.53;6.60;;;2.90;78.20;;;6.31;48.58;97352.25;5063259;28;20044;-46
2023/04/20 05:01:18;;;;;;;9.07;6.00;;;3.00;78.20;;;6.35;49.07;97356.25;5061329;28;20059;-44
2023/04/20 05:03:45;;;;;;;8.57;5.70;;;3.10;77.50;;;6.40;48.28;97358.50;5061985;28;20057;-44
2023/04/20 05:06:13;;;;;;;7.53;5.70;;;3.10;77.60;;;6.44;48.54;97359.88;5064092;28;20051;-46
2023/04/20 05:08:41;;;;;;;10.87;6.20;;;3.20;77.50;;;6.47;48.83;97354.28;5063042;28;20063;-44
2023/04/20 05:11:09;;;;;;;12.40;6.30;;;3.20;77.20;;;6.50;48.47;97362.78;5062076;28;20037;-44
2023/04/20 05:13:37;;;;;;;8.33;6.60;;;3.20;76.90;;;6.53;48.56;97356.34;5061958;28;20498;-46
2023/04/20 05:16:05;;;;;;;9.03;6.67;;;3.30;77.50;;;6.56;48.57;97358.72;5067574;28;20041;-47
2023/04/20 05:18:32;;;;;;;8.70;6.30;;;3.40;77.50;;;6.59;48.60;97355.81;5061663;28;20048;-45
2023/04/20 05:21:00;;;;;;;11.77;6.13;;;3.40;77.40;;;6.59;49.00;97358.47;5061712;28;20509;-46
2023/04/20 05:23:28;;;;;;;8.20;6.27;;;3.40;77.40;;;6.63;48.78;97359.84;5061066;28;20048;-46
2023/04/20 05:25:55;;;;;;;8.73;5.47;;;3.50;78.00;;;6.70;48.79;97365.38;5063882;28;20071;-46
2023/04/20 05:28:23;;;;;;;7.80;5.53;;;3.50;77.60;;;6.72;49.27;97359.94;5064787;28;20036;-44
2023/04/20 05:30:51;;;;;;;8.07;6.10;;;3.60;77.20;;;6.77;49.37;97365.66;5062672;28;20051;-46
2023/04/20 05:33:18;;;;;;;9.47;6.23;;;3.60;77.30;;;6.80;49.04;97366.16;5059486;28;20418;-45
2023/04/20 05:35:46;;;;;;;9.27;5.50;;;3.70;77.30;;;6.82;49.15;97364.22;5062671;28;20056;-46
2023/04/20 05:38:14;;;;;;;10.73;5.87;;;3.60;77.10;;;6.82;48.96;97360.75;5064761;28;20036;-46
2023/04/20 05:40:41;;;;;;;9.57;5.97;;;3.60;77.30;;;6.85;48.79;97363.94;5063661;28;20048;-48
2023/04/20 05:43:10;;;;;;;10.40;7.57;;;3.60;77.30;;;6.86;49.39;97362.97;5060882;28;20089;-47
2023/04/20 05:45:39;;;;;;;8.07;5.50;;;3.70;77.60;;;6.92;48.73;97360.69;5061055;28;20053;-44
2023/04/20 05:48:07;;;;;;;10.30;7.97;;;3.80;77.00;;;6.95;49.12;97365.72;5064452;28;20051;-45
2023/04/20 05:50:34;;;;;;;9.03;5.57;;;3.80;76.60;;;6.99;49.49;97359.16;5064332;28;20485;-47
2023/04/20 05:53:02;;;;;;;8.30;6.10;;;3.80;76.60;;;7.03;48.91;97360.53;5061208;28;20036;-49
2023/04/20 05:55:30;;;;;;;10.30;6.73;;;3.80;77.00;;;7.07;49.49;97360.06;5060613;28;20411;-45
2023/04/20 05:57:57;;;;;;;9.00;5.87;;;3.90;77.20;;;7.14;49.47;97359.50;5063676;28;20056;-47
2023/04/20 06:00:25;;;;;;;7.80;5.93;;;4.00;77.10;;;7.17;49.51;97360.03;5064498;28;20498;-44
2023/04/20 06:02:53;;;;;;;9.67;6.07;;;4.00;77.00;;;7.22;48.89;97356.97;5061910;28;20048;-44
2023/04/20 06:05:21;;;;;;;8.93;5.67;;;4.10;77.10;;;7.28;49.15;97361.66;5060449;28;20493;-46
2023/04/20 06:07:49;;;;;;;10.27;5.83;;;4.10;77.00;;;7.31;49.27;97364.03;5062444;28;20052;-47
2023/04/20 06:10:17;;;;;;;8.70;6.83;;;4.20;77.40;;;7.38;49.62;97358.97;5063984;28;20052;-47
2023/04/20 06:12:44;;;;;;;10.83;6.40;;;4.20;77.60;;;7.43;49.48;97357.53;5062811;28;20040;-44
2023/04/20 06:15:12;;;;;;;9.27;6.83;;;4.30;77.90;;;7.48;49.21;97357.06;5060390;28;20048;-42
2023/04/20 06:17:39;;;;;;;10.27;6.53;;;4.40;78.10;;;7.52;49.55;97357.63;5060725;28;20056;-42
2023/04/20 06:20:10;;;;;;;11.17;8.00;;;4.50;77.10;;;7.55;49.54;97358.16;5063937;28;20040;-42
2023/04/20 06:22:45;;;;;;;12.13;7.63;;;4.50;76.90;;;7.60;49.35;97353.25;5063936;28;20048;-42
2023/04/20 06:25:14;;;;;;;9.13;6.27;;;4.60;76.70;;;7.66;49.11;97346.53;5032586;28;20048;-42
2023/04/20 06:27:42;;;;;;;8.43;6.40;;;4.60;76.80;;;7.69;49.33;97347.03;5057807;28;20037;-42
2023/04/20 06:30:11;;;;;;;8.67;6.23;;;4.70;76.70;;;7.72;49.68;97343.28;5063801;28;20048;-43
2023/04/20 06:32:38;;;;;;;8.03;5.70;;;4.70;76.70;;;7.74;49.69;97341.31;5063717;28;20595;-44
2023/04/20 06:35:07;;;;;;;9.33;5.90;;;4.80;76.70;;;7.76;49.21;97336.69;5051519;28;20398;-43
2023/04/20 06:37:35;;;;;;;8.90;5.40;;;4.90;76.20;;;7.82;49.38;97340.56;5060289;28;20041;-43
2023/04/20 06:40:07;;;;;;;10.63;5.90;;;4.90;75.90;;;7.87;49.28;97341.75;5063090;28;20413;-43
2023/04/20 06:42:36;;;;;;;8.90;6.43;;;4.90;76.00;;;7.92;49.16;97343.94;5062139;28;20394;-43
2023/04/20 06:45:05;;;;;;;8.00;5.87;;;4.90;75.90;;;7.97;49.09;97343.47;5059619;28;20438;-43
2023/04/20 06:47:33;;;;;;;10.10;6.87;;;5.00;76.00;;;8.05;49.67;97344.41;5060109;28;20049;-43
2023/04/20 06:50:08;;;;;;;11.40;5.87;;;5.10;76.10;;;8.08;49.33;97344.13;5062969;28;20302;-44
2023/04/20 06:52:39;;;;;;;;;;;5.10;76.40;;;8.17;49.20;97334.38;5063660;28;20071;-43
2023/04/20 06:55:07;;;;;;;8.00;6.03;;;5.00;76.80;;;8.19;48.93;97342.19;5050286;28;19921;-43
2023/04/20 06:57:37;;;;;;;9.10;6.97;;;5.10;76.80;;;8.22;49.41;97341.88;5058376;28;20422;-44
2023/04/20 07:00:08;;;;;;;7.90;5.50;;;5.10;76.70;;;8.29;49.44;97351.72;5058391;28;20045;-45
2023/04/20 07:02:48;;;;;;;8.53;5.83;;;5.20;76.50;;;8.37;49.29;97345.63;5059892;28;20438;-43
2023/04/20 07:05:17;;;;;;;9.40;6.67;;;5.30;76.50;;;8.43;48.90;97349.53;5052278;28;20044;-43
2023/04/20 07:07:45;;;;;;;9.93;6.57;;;5.30;76.00;;;8.48;49.07;97348.06;5060735;28;20045;-43
2023/04/20 07:10:13;;;;;;;9.10;6.17;;;5.50;75.80;;;8.53;49.35;97344.97;5063563;28;20039;-43
2023/04/20 07:12:42;;;;;;;10.13;6.57;;;5.50;75.50;;;8.58;49.02;97341.84;5061371;28;20044;-43
2023/04/20 07:15:11;;;;;;;8.63;7.13;;;5.50;75.50;;;8.64;49.24;97338.56;5059381;28;20052;-44
2023/04/20 07:17:39;;;;;;;12.40;6.10;;;5.60;75.40;;;8.69;49.10;97332.81;5059406;28;20045;-43
2023/04/20 07:20:08;;;;;;;9.23;6.67;;;5.60;75.40;;;8.75;49.04;97334.81;5051684;28;20037;-43
2023/04/20 07:22:37;;;;;;;8.93;6.83;;;5.70;75.20;;;8.79;49.01;97336.16;5059498;28;20418;-44
2023/04/20 07:25:07;;;;;;;11.90;7.47;;;5.80;75.80;;;8.79;49.13;97330.88;5059131;28;20052;-46
2023/04/20 07:27:37;;;;;;;11.73;6.70;;;5.80;74.90;;;8.80;49.09;97324.53;5059321;28;20049;-43
2023/04/20 07:30:07;;;;;;;11.30;7.63;;;5.80;74.80;;;8.84;49.05;97321.44;5062838;28;20041;-48
2023/04/20 07:32:36;;;;;;;9.63;7.33;;;5.80;75.10;;;8.87;49.17;97326.41;5062561;28;20052;-45
2023/04/20 07:35:04;;;;;;;9.90;6.30;;;5.90;75.30;;;8.93;49.04;97316.16;5058928;28;20045;-46
2023/04/20 07:37:33;;;;;;;10.13;7.70;;;6.00;75.00;;;8.92;49.19;97323.31;5059331;28;20041;-44
2023/04/20 07:40:01;;;;;;;10.00;6.87;;;6.00;74.50;;;8.97;49.33;97320.97;5062533;28;20419;-45
2023/04/20 07:42:28;;;;;;;9.83;7.27;;;6.10;74.50;;;9.03;49.22;97333.66;5062708;28;20052;-44
2023/04/20 07:44:56;;;;;;;8.63;7.20;;;6.10;74.60;;;9.11;48.85;97324.88;5059952;28;20049;-43
2023/04/20 07:47:23;;;;;;;9.87;7.77;;;6.20;74.40;;;9.15;49.05;97320.91;5058962;28;20041;-46
2023/04/20 07:49:52;;;;;;;15.73;7.57;;;6.20;74.20;;;9.21;48.83;97319.44;5060606;28;20053;-46
2023/04/20 07:52:19;;;;;;;12.70;7.53;;;6.30;74.40;;;9.27;49.03;97324.13;5062387;28;20385;-45
2023/04/20 07:54:47;;;;;;;10.07;6.90;;;6.30;74.40;;;9.33;49.00;97319.97;5060785;28;20041;-44
2023/04/20 07:57:14;;;;;;;11.77;8.00;;;6.40;74.60;;;9.39;48.89;97322.00;5059130;28;20043;-44
2023/04/20 07:59:45;;;;;;;9.77;7.43;;;6.50;74.50;;;9.42;48.80;97322.50;5059165;28;20041;-45
2023/04/20 08:02:13;;;;;;;9.37;6.60;;;6.50;73.90;;;9.46;48.81;97326.50;5061884;28;20417;-45
2023/04/20 08:04:40;;;;;;;10.10;8.07;;;6.60;73.70;;;9.49;48.71;97320.00;5061125;28;20053;-46
2023/04/20 08:07:09;;;;;;;11.17;7.47;;;6.60;73.30;;;9.55;48.80;97318.53;5058497;28;20064;-46
2023/04/20 08:09:37;;;;;;;12.93;9.03;;;6.60;73.40;;;9.65;48.59;97314.75;5058460;28;20049;-45
2023/04/20 08:12:05;;;;;;;12.57;7.37;;;6.70;73.50;;;9.76;48.61;97312.75;5057271;28;20041;-45
2023/04/20 08:14:32;;;;;;;9.43;6.57;;;6.80;73.30;;;9.87;48.35;97317.78;5058574;28;20045;-44
2023/04/20 08:17:00;;;;;;;11.07;7.33;;;7.00;72.90;;;9.98;48.53;97314.78;5060070;28;20063;-44
2023/04/20 08:19:28;;;;;;;10.87;7.97;;;7.10;72.50;;;10.09;48.19;97318.13;5062314;28;20417;-45
2023/04/20 08:21:55;;;;;;;10.33;6.97;;;7.30;72.30;;;10.16;48.44;97314.63;5059641;28;20060;-45
2023/04/20 08:24:23;;;;;;;10.00;7.57;;;7.30;72.20;;;10.23;48.38;97317.44;5057263;28;20521;-45
2023/04/20 08:26:50;;;;;;;9.53;7.57;;;7.40;71.80;;;10.29;47.96;97316.75;5059793;28;20041;-46
2023/04/20 08:29:18;;;;;;;10.77;7.60;;;7.40;71.70;;;10.37;48.30;97313.28;5062264;28;20036;-46
2023/04/20 08:31:45;;;;;;;10.93;7.27;;;7.50;71.70;;;10.46;47.93;97308.81;5061234;28;20052;-46
2023/04/20 08:34:15;;;;;;;9.07;7.30;;;7.60;71.50;;;10.58;48.00;97310.09;5058558;28;20051;-44
2023/04/20 08:36:43;;;;;;;12.13;7.93;;;7.70;71.30;;;10.71;47.89;97307.75;5058322;28;20041;-46
2023/04/20 08:39:20;;;;;;;11.00;8.20;;;7.90;71.00;;;10.83;47.60;97308.22;5062107;28;20045;-44
2023/04/20 08:41:52;;;;;;;10.00;7.23;;;8.10;70.50;;;10.95;47.62;97304.19;5059778;28;20501;-45
2023/04/20 08:44:20;;;;;;;12.87;8.30;;;8.20;70.00;;;11.02;47.56;97304.34;5057484;28;20045;-46
2023/04/20 08:46:49;;;;;;;10.67;7.73;;;8.30;69.90;;;11.11;47.15;97300.66;5059463;28;20048;-47
2023/04/20 08:49:19;;;;;;;9.80;7.43;;;8.30;69.40;;;11.20;46.95;97304.09;5061832;28;20067;-47
2023/04/20 08:51:48;;;;;;;10.13;7.00;;;8.40;69.20;;;11.33;47.18;97307.03;5060649;28;20498;-44
2023/04/20 08:54:15;;;;;;;10.73;7.63;;;8.50;68.90;;;11.47;47.35;97305.44;5058413;28;20048;-45
2023/04/20 08:56:46;;;;;;;10.53;8.13;;;8.70;68.80;;;11.60;46.63;97308.38;5058703;28;20552;-46
2023/04/20 08:59:15;;;;;;;12.23;8.60;;;8.80;68.20;;;11.72;46.70;97307.97;5064786;28;20044;-46
2023/04/20 09:01:44;;;;;;;9.63;7.57;;;8.90;68.20;;;11.76;46.42;97307.44;5063046;28;20040;-48
2023/04/20 09:04:18;;;;;;;9.40;7.50;;;8.90;67.80;;;11.78;46.53;97304.59;5061563;28;20048;-47
2023/04/20 09:06:49;;;;;;;10.90;7.40;;;8.90;66.70;;;11.75;46.35;97311.13;5061334;28;20056;-48
2023/04/20 09:09:18;;;;;;;11.30;7.67;;;8.90;67.10;;;11.77;46.22;97302.97;5065535;28;20447;-47
2023/04/20 09:11:47;;;;;;;9.43;6.80;;;8.90;67.30;;;11.76;46.55;97303.94;5062996;28;20060;-44
2023/04/20 09:14:16;;;;;;;11.27;8.00;;;8.80;67.90;;;11.71;46.38;97315.16;5061868;28;20044;-44
2023/04/20 09:17:00;;;;;;;10.47;8.77;;;8.80;67.70;;;11.67;46.09;97308.53;5062060;28;20048;-44
2023/04/20 09:19:29;;;;;;;13.82;8.38;;;8.80;67.70;;;11.68;46.42;97307.50;5065318;28;20036;-45
2023/04/20 09:22:02;;;;;;;11.33;6.93;;;8.70;67.70;;;11.65;45.99;97305.19;5062899;28;20056;-49
2023/04/20 09:24:32;;;;;;;11.20;7.77;;;8.70;67.70;;;11.63;46.32;97307.19;5061698;28;20067;-45
2023/04/20 09:27:14;;;;;;;11.77;7.63;;;8.70;67.60;;;11.64;46.46;97306.19;5063731;28;20052;-45
2023/04/20 09:29:42;;;;;;;9.47;7.33;;;8.70;67.90;;;11.69;45.83;97298.50;5064663;28;20048;-45
2023/04/20 09:32:25;;;;;;;9.63;6.73;;;8.70;67.30;;;11.70;46.17;97299.31;5061609;28;20041;-44
2023/04/20 09:34:53;;;;;;;8.87;7.33;;;8.60;67.40;;;11.74;46.06;97300.63;5062440;28;20041;-46
2023/04/20 09:37:21;;;;;;;12.10;7.60;;;8.70;67.70;;;11.77;46.38;97300.28;5063676;28;20399;-46
2023/04/20 09:39:49;;;;;;;10.60;6.87;;;8.70;68.60;;;11.80;46.35;97295.41;5063149;28;20057;-43
2023/04/20 09:42:17;;;;;;;31.63;8.40;;;8.70;68.30;;;11.79;46.25;97288.44;5061284;28;20049;-45
2023/04/20 09:44:45;;;;;;;9.63;7.00;;;8.80;68.60;;;11.88;46.43;97289.19;5061782;28;20525;-46
2023/04/20 09:47:20;;;;;;;11.60;8.10;;;8.80;69.10;;;11.91;46.59;97290.72;5064988;28;20051;-44
2023/04/20 09:49:49;;;;;;;9.07;7.73;;;8.90;70.00;;;11.92;46.42;97289.69;5063507;28;20044;-45
2023/04/20 09:52:17;;;;;;;9.93;7.17;;;8.90;69.00;;;11.94;46.85;97291.19;5059985;28;20048;-43
2023/04/20 09:54:45;;;;;;;10.97;7.40;;;9.00;68.90;;;12.00;46.83;97287.81;5061617;28;20041;-44
2023/04/20 09:57:13;;;;;;;10.13;7.43;;;9.00;69.80;;;12.02;46.40;97288.47;5064554;28;20049;-45
2023/04/20 09:59:43;;;;;;;8.63;7.67;;;8.90;69.70;;;12.05;46.64;97286.44;5061556;28;20547;-44
2023/04/20 10:02:11;;;;;;;13.03;7.90;;;8.90;69.70;;;12.06;46.39;97285.41;5060844;28;20037;-47
2023/04/20 10:05:08;;;;;;;9.60;6.77;;;9.10;69.10;;;12.02;46.73;97284.97;5060875;28;20045;-46
2023/04/20 10:07:36;;;;;;;9.67;6.93;;;9.00;68.40;;;12.09;46.19;97279.72;5048416;28;20061;-45
2023/04/20 10:10:11;;;;;;;8.97;7.10;;;9.10;69.00;;;12.08;46.35;97281.56;5062736;28;20047;-48
2023/04/20 10:12:53;;;;;;;11.03;7.00;;;9.10;68.90;;;12.05;46.36;97286.44;5061937;28;20052;-46
2023/04/20 10:15:23;;;;;;;12.33;6.70;;;9.10;67.80;;;11.99;46.52;97285.31;5054394;28;20561;-46
2023/04/20 10:17:50;;;;;;;9.27;7.23;;;9.10;68.20;;;11.97;46.36;97290.00;5061983;28;20498;-44
2023/04/20 10:20:22;;;;;;;9.97;6.53;;;9.00;68.70;;;12.01;46.25;97280.63;5063966;28;20052;-45
2023/04/20 10:23:08;;;;;;;10.03;7.17;;;9.00;68.30;;;12.01;46.32;97272.63;5062723;28;20048;-47
2023/04/20 10:25:36;;;;;;;12.40;6.87;;;8.90;69.10;;;12.10;46.46;97273.41;5060291;28;20052;-44
2023/04/20 10:28:08;;;;;;;10.77;7.70;;;9.00;68.80;;;12.09;46.18;97272.53;5063379;28;20048;-43
2023/04/20 10:30:48;;;;;;;11.27;7.67;;;9.10;68.10;;;12.10;46.18;97266.22;5064185;28;20048;-44
2023/04/20 10:33:16;;;;;;;13.10;7.53;;;9.10;67.90;;;12.12;46.02;97269.53;5037378;28;20044;-45
2023/04/20 10:35:57;;;;;;;8.90;7.50;;;9.00;68.20;;;12.14;45.96;97256.03;5058984;28;20410;-45
2023/04/20 10:38:35;;;;;;;9.97;6.30;;;9.10;68.00;;;12.19;45.84;97258.94;5063651;28;20043;-46